Latest Weather Observations for Nowra

IDN60901

Issued at 1:51 pm EST Tuesday 7 July 2020 (issued every 10 minutes, with the page automatically refreshed every 10 minutes)

About weather observations | Map of Canberra area stations | Latest observations for Canberra area | Other Formats
Station Details ID: 068072 Name: NOWRA RAN AIR STATION AWS Lat: -34.95 Lon: 150.54 Height: 109.0 m
Data from the previous 72 hours. | See also: Recent months at Nowra
Date/Time
EST
Temp
°C
App
Temp
°C
Dew
Point
°C
Rel
Hum
%
Delta-T
°C
Wind Press
QNH
hPa
Press
MSL
hPa
Rain since
9am
mm
Dir  Spd
km/h
Gust
km/h
Spd
kts
Gust
kts
07/01:30pm 14.7 10.2 6.0 56 4.2 SSE 19 24 10 13 1029.1 1029.2 0.0
07/01:00pm 15.0 10.5 6.0 55 4.3 SE 19 26 10 14 1029.2 1029.3 0.0
07/12:30pm 14.7 10.1 5.8 55 4.3 SE 19 26 10 14 1029.3 1029.4 0.0
07/12:00pm 14.9 10.6 5.4 53 4.5 SSW 17 24 9 13 1029.5 1029.6 0.0
07/11:30am 14.9 11.6 6.5 57 4.1 NW 13 20 7 11 1029.9 1030.0 0.0
07/11:00am 13.1 9.4 6.5 64 3.1 NW 15 17 8 9 1030.2 1030.3 0.0
07/10:30am 11.9 8.2 6.2 68 2.7 WNW 15 19 8 10 1030.3 1030.4 0.0
07/10:00am 10.7 8.1 5.9 72 2.2 NW 9 15 5 8 1030.3 1030.4 0.0
07/09:30am 10.0 7.3 5.4 73 2.1 NW 9 15 5 8 1030.4 1030.5 0.0
07/09:00am 9.3 6.9 5.3 76 1.8 NW 7 13 4 7 1030.2 1030.3 0.0
07/08:30am 8.7 4.8 5.3 79 1.5 WNW 15 20 8 11 1029.8 1029.9 0.0
07/08:00am 8.2 3.9 5.3 82 1.3 NW 17 20 9 11 1029.6 1029.7 0.0
07/07:30am 7.9 3.2 5.2 83 1.2 NW 19 24 10 13 1029.5 1029.6 0.0
07/07:00am 7.7 2.8 5.3 85 1.1 WNW 20 24 11 13 1029.5 1029.6 0.0
07/06:30am 7.5 2.6 5.3 86 1.0 WNW 20 24 11 13 1029.2 1029.3 0.0
07/06:00am 6.7 3.5 5.0 89 0.7 WNW 11 15 6 8 1029.1 1029.2 0.0
07/05:30am 7.0 2.7 5.3 89 0.8 NW 17 20 9 11 1028.9 1029.0 0.0
07/05:00am 7.2 2.9 5.3 88 0.8 NW 17 20 9 11 1028.5 1028.6 0.0
07/04:30am 7.7 3.5 5.5 86 1.0 WNW 17 22 9 12 1028.5 1028.6 0.0
07/04:00am 7.8 4.4 5.9 88 0.9 WNW 13 17 7 9 1028.5 1028.6 0.0
07/03:30am 8.1 4.4 6.1 87 0.9 WNW 15 19 8 10 1028.4 1028.5 0.0
07/03:00am 8.5 4.7 6.0 84 1.1 WNW 15 20 8 11 1028.4 1028.5 0.0
07/02:30am 8.7 5.3 5.8 82 1.3 NW 13 17 7 9 1028.4 1028.5 0.0
07/02:00am 10.1 6.5 6.6 79 1.6 NW 15 17 8 9 1028.4 1028.5 0.0
07/01:30am 10.4 7.6 7.1 80 1.6 NW 11 13 6 7 1028.5 1028.6 0.0
07/01:00am 10.3 7.5 6.8 79 1.6 NW 11 17 6 9 1028.5 1028.6 0.0
07/12:30am 10.0 7.4 6.3 78 1.7 WNW 9 11 5 6 1028.4 1028.5 0.0
07/12:00am 10.8 10.0 6.7 76 1.9 CALM 0 0 0 0 1028.5 1028.6 0.0
 
Date/Time
EST
Temp
°C
App
Temp
°C
Dew
Point
°C
Rel
Hum
%
Delta-T
°C
Wind Press
QNH
hPa
Press
MSL
hPa
Rain since
9am
mm
Dir  Spd
km/h
Gust
km/h
Spd
kts
Gust
kts
06/11:30pm 10.9 8.4 6.6 75 2.0 WNW 9 13 5 7 1028.6 1028.7 0.0
06/11:00pm 11.1 8.3 6.8 75 2.0 WNW 11 13 6 7 1028.8 1028.9 0.0
06/10:30pm 11.2 8.0 6.7 74 2.1 W 13 15 7 8 1028.8 1028.9 0.0
06/10:00pm 11.2 8.4 6.9 75 2.0 WNW 11 13 6 7 1028.8 1028.9 0.0
06/09:30pm 11.1 8.0 7.2 77 1.9 W 13 15 7 8 1028.7 1028.8 0.0
06/09:00pm 10.5 7.8 7.4 81 1.5 W 11 13 6 7 1028.8 1028.9 0.0
06/08:30pm 8.6 7.6 7.5 93 0.5 W 2 9 1 5 1028.8 1028.9 0.0
06/08:00pm 8.0 7.2 6.5 90 0.7 CALM 0 0 0 0 1028.6 1028.7 0.0
06/07:30pm 9.1 8.6 7.9 92 0.6 CALM 0 0 0 0 1028.4 1028.5 0.0
06/07:00pm 8.4 7.3 6.9 90 0.7 WSW 2 6 1 3 1028.1 1028.2 0.0
06/06:30pm 8.4 6.3 6.7 89 0.8 SW 7 11 4 6 1027.7 1027.8 0.0
06/06:00pm 8.1 5.9 6.1 87 0.9 SSW 7 11 4 6 1027.3 1027.4 0.0
06/05:30pm 8.2 5.7 4.6 78 1.6 SSE 7 7 4 4 1026.9 1027.0 0.0
06/05:00pm 11.6 9.0 6.3 70 2.5 SE 9 11 5 6 1026.5 1026.6 0.0
06/04:30pm 13.1 10.2 6.7 65 3.1 SE 11 15 6 8 1026.2 1026.3 0.0
06/04:00pm 14.1 10.5 6.9 62 3.5 SSE 15 17 8 9 1026.1 1026.2 0.0
06/03:30pm 14.8 10.9 7.1 60 3.8 SSE 17 20 9 11 1026.0 1026.1 0.0
06/03:00pm 15.5 12.5 6.2 54 4.5 SE 11 15 6 8 1025.9 1026.0 0.0
06/02:30pm 15.7 12.3 5.9 52 4.7 SE 13 17 7 9 1025.8 1025.9 0.0
06/02:00pm 16.7 14.9 5.3 47 5.5 NW 4 9 2 5 1025.8 1025.9 0.0
06/01:30pm 16.0 13.1 4.4 46 5.5 N 9 15 5 8 1026.0 1026.1 0.0
06/01:00pm 16.4 14.2 5.1 47 5.4 NE 6 11 3 6 1026.3 1026.4 0.0
06/12:30pm 16.1 14.4 5.7 50 5.0 NW 4 9 2 5 1026.6 1026.7 0.0
06/12:00pm 15.1 12.1 5.9 54 4.4 NNW 11 15 6 8 1027.0 1027.1 0.0
06/11:30am 14.6 11.5 5.7 55 4.3 WNW 11 20 6 11 1027.6 1027.7 0.0
06/11:00am 13.9 9.7 5.8 58 3.8 NW 17 20 9 11 1027.9 1028.0 0.0
06/10:30am 13.0 8.2 5.7 61 3.4 NW 20 24 11 13 1028.2 1028.3 0.0
06/10:00am 12.6 7.9 6.2 65 3.0 WNW 20 26 11 14 1028.2 1028.3 0.0
06/09:30am 11.3 6.5 5.6 68 2.6 WNW 20 26 11 14 1028.2 1028.3 0.0
06/09:00am 10.2 5.0 5.4 72 2.2 NW 22 30 12 16 1028.0 1028.1 0.0
06/08:30am 9.4 4.6 5.4 76 1.8 NW 20 26 11 14 1027.7 1027.8 0.0
06/08:00am 8.5 3.7 5.4 81 1.4 NW 20 24 11 13 1027.3 1027.4 0.0
06/07:30am 7.8 3.1 5.3 84 1.1 NW 19 24 10 13 1027.0 1027.1 0.0
06/07:00am 7.5 2.8 5.3 86 1.0 NW 19 22 10 12 1026.7 1026.8 0.0
06/06:30am 7.4 3.1 5.2 86 1.0 WNW 17 19 9 10 1026.3 1026.4 0.0
06/06:00am 7.7 3.5 5.5 86 1.0 NW 17 20 9 11 1026.0 1026.1 0.0
06/05:30am 7.6 3.3 5.4 86 1.0 NW 17 20 9 11 1025.6 1025.7 0.0
06/05:00am 8.1 3.5 5.6 84 1.1 NW 19 22 10 12 1025.4 1025.5 0.0
06/04:30am 8.5 3.9 5.6 82 1.3 WNW 19 24 10 13 1025.3 1025.4 0.0
06/04:00am 8.7 4.1 5.8 82 1.3 WNW 19 22 10 12 1025.2 1025.3 0.0
06/03:30am 8.6 4.4 5.7 82 1.3 WNW 17 20 9 11 1025.3 1025.4 0.0
06/03:00am 8.8 4.6 5.7 81 1.4 NW 17 20 9 11 1025.3 1025.4 0.0
06/02:30am 9.0 4.4 5.7 80 1.5 WNW 19 22 10 12 1025.3 1025.4 0.0
06/02:00am 9.1 4.5 5.7 79 1.5 NW 19 22 10 12 1025.4 1025.5 0.0
06/01:30am 9.5 4.9 5.5 76 1.8 NW 19 22 10 12 1025.3 1025.4 0.0
06/01:00am 10.2 5.6 5.6 73 2.1 NW 19 24 10 13 1025.4 1025.5 0.0
06/12:30am 10.6 6.0 5.4 70 2.4 WNW 19 24 10 13 1025.4 1025.5 0.0
06/12:00am 10.7 6.5 5.5 70 2.4 NW 17 22 9 12 1025.5 1025.6 0.0
 
Date/Time
EST
Temp
°C
App
Temp
°C
Dew
Point
°C
Rel
Hum
%
Delta-T
°C
Wind Press
QNH
hPa
Press
MSL
hPa
Rain since
9am
mm
Dir  Spd
km/h
Gust
km/h
Spd
kts
Gust
kts
05/11:30pm 10.8 6.9 5.3 69 2.5 WNW 15 20 8 11 1025.5 1025.6 0.0
05/11:00pm 11.1 6.8 5.4 68 2.6 NW 17 20 9 11 1025.3 1025.4 0.0
05/10:30pm 11.0 6.7 5.3 68 2.6 NW 17 22 9 12 1025.2 1025.3 0.0
05/10:00pm 11.0 7.1 5.5 69 2.5 NW 15 19 8 10 1024.9 1025.0 0.0
05/09:30pm 10.5 6.6 5.5 71 2.3 NW 15 17 8 9 1024.5 1024.6 0.0
05/09:00pm 10.8 6.5 5.1 68 2.6 NW 17 20 9 11 1024.2 1024.2 0.0
05/08:30pm 11.7 7.4 5.3 65 3.0 WNW 17 19 9 10 1024.0 1024.0 0.0
05/08:00pm 12.2 8.3 5.4 63 3.2 WNW 15 20 8 11 1023.6 1023.6 0.0
05/07:30pm 12.6 9.2 5.8 63 3.2 WNW 13 17 7 9 1023.5 1023.5 0.0
05/07:00pm 12.7 9.4 6.3 65 3.0 WSW 13 17 7 9 1023.3 1023.3 0.0
05/06:30pm 11.5 9.1 6.8 73 2.2 WSW 9 11 5 6 1022.8 1022.8 0.0
05/06:00pm 10.2 7.0 5.2 71 2.3 SW 11 15 6 8 1022.3 1022.4 0.0
05/05:30pm 11.2 8.4 5.1 66 2.8 SSW 9 11 5 6 1021.7 1021.8 0.0
05/05:00pm 14.0 10.3 4.6 53 4.4 WNW 13 17 7 9 1021.1 1021.2 0.0
05/04:30pm 15.4 11.7 4.5 48 5.1 NW 13 19 7 10 1020.8 1020.9 0.0
05/04:00pm 16.3 11.8 4.0 44 5.7 WNW 17 24 9 13 1020.7 1020.8 0.0
05/03:30pm 16.9 12.4 4.3 43 6.0 WNW 17 24 9 13 1020.6 1020.7 0.0
05/03:00pm 17.6 13.0 3.5 39 6.6 W 17 22 9 12 1020.6 1020.7 0.0
05/02:30pm 17.7 13.0 3.2 38 6.7 WSW 17 20 9 11 1020.3 1020.4 0.0
05/02:00pm 17.4 12.7 3.0 38 6.6 W 17 26 9 14 1020.1 1020.2 0.0
05/01:30pm 17.2 12.9 3.1 39 6.5 WNW 15 22 8 12 1020.2 1020.3 0.0
05/01:00pm 16.8 12.2 3.5 41 6.2 WNW 17 24 9 13 1020.5 1020.6 0.0
05/12:30pm 16.5 11.4 3.9 43 5.9 W 20 30 11 16 1020.7 1020.8 0.0
05/12:00pm 16.2 11.1 3.9 44 5.7 W 20 30 11 16 1021.2 1021.3 0.0
05/11:30am 15.8 10.7 4.2 46 5.4 WNW 20 28 11 15 1021.5 1021.6 0.0
05/11:00am 15.2 9.3 4.0 47 5.2 W 24 35 13 19 1021.7 1021.8 0.0
05/10:30am 14.7 9.0 5.0 52 4.6 W 24 35 13 19 1021.8 1021.9 0.0
05/10:00am 13.9 7.8 4.8 54 4.2 WNW 26 37 14 20 1021.8 1021.9 0.0
05/09:30am 13.1 6.7 5.0 58 3.8 W 28 37 15 20 1021.7 1021.8 0.0
05/09:00am 12.5 6.5 5.2 61 3.4 W 26 33 14 18 1021.6 1021.7 0.0
05/08:30am 11.6 5.6 5.3 65 2.9 WNW 26 33 14 18 1021.5 1021.6 0.0
05/08:00am 10.8 5.1 5.1 68 2.6 WNW 24 32 13 17 1021.4 1021.5 0.0
05/07:30am 9.9 4.2 4.9 71 2.3 WNW 24 32 13 17 1020.9 1021.0 0.0
05/07:00am 9.9 4.2 4.9 71 2.3 WNW 24 33 13 18 1020.6 1020.7 0.0
05/06:30am 9.7 4.0 4.7 71 2.2 WNW 24 30 13 16 1020.3 1020.4 0.0
05/06:00am 9.6 3.8 4.6 71 2.2 WNW 24 30 13 16 1019.8 1019.9 0.0
05/05:30am 9.9 3.7 4.3 68 2.5 WNW 26 32 14 17 1019.5 1019.6 0.0
05/05:00am 10.3 3.3 4.2 66 2.7 WNW 30 39 16 21 1019.3 1019.4 0.0
05/04:30am 9.8 4.2 3.5 65 2.8 WNW 22 26 12 14 1019.1 1019.2 0.0
05/04:00am 10.1 4.1 3.6 64 2.8 W 24 30 13 16 1018.9 1019.0 0.0
05/03:30am 9.9 4.3 3.4 64 2.8 WNW 22 28 12 15 1018.9 1019.0 0.0
05/03:00am 9.6 4.4 3.6 66 2.6 WNW 20 24 11 13 1018.9 1019.0 0.0
05/02:30am 9.5 4.8 3.3 65 2.7 WNW 17 20 9 11 1018.9 1019.0 0.0
05/02:00am 10.3 5.1 3.3 62 3.1 WNW 20 26 11 14 1018.9 1019.0 0.0
05/01:30am 10.3 4.3 3.1 61 3.1 WNW 24 32 13 17 1018.9 1019.0 0.0
05/01:00am 10.1 4.0 2.9 61 3.1 WNW 24 30 13 16 1018.7 1018.8 0.0
05/12:30am 10.0 4.3 2.8 61 3.1 WNW 22 28 12 15 1018.7 1018.8 0.0
05/12:00am 10.3 4.6 2.7 59 3.3 WNW 22 30 12 16 1018.6 1018.7 0.0
 
Date/Time
EST
Temp
°C
App
Temp
°C
Dew
Point
°C
Rel
Hum
%
Delta-T
°C
Wind Press
QNH
hPa
Press
MSL
hPa
Rain since
9am
mm
Dir  Spd
km/h
Gust
km/h
Spd
kts
Gust
kts
04/11:30pm 10.4 3.9 2.7 59 3.3 WNW 26 35 14 19 1018.9 1019.0 0.0
04/11:00pm 10.3 4.2 2.9 60 3.2 WNW 24 32 13 17 1019.0 1019.1 0.0
04/10:30pm 10.1 2.9 2.9 61 3.1 WNW 30 39 16 21 1018.9 1019.0 0.0
04/10:00pm 10.2 2.6 3.0 61 3.1 WNW 32 43 17 23 1019.0 1019.1 0.0
04/09:30pm 10.0 3.2 3.1 62 3.0 WNW 28 43 15 23 1019.0 1019.1 0.0
04/09:00pm 9.9 2.2 3.2 63 2.9 WNW 33 46 18 25 1019.2 1019.3 0.0
04/08:41pm 10.0 2.5 3.3 63 2.9 WNW 32 50 17 27 1019.4 1019.5 0.0
04/08:30pm 10.0 1.9 3.3 63 2.9 W 35 44 19 24 1019.4 1019.5 0.0
04/08:00pm 10.2 2.1 3.5 63 2.9 WNW 35 44 19 24 1019.4 1019.5 0.0
04/07:30pm 10.3 2.8 3.3 62 3.1 WNW 32 39 17 21 1019.3 1019.4 0.0
04/07:00pm 10.6 3.8 3.2 60 3.2 WNW 28 39 15 21 1019.1 1019.2 0.0
04/06:30pm 11.0 4.9 2.8 57 3.6 WNW 24 33 13 18 1019.0 1019.1 0.0
04/06:00pm 11.5 6.1 2.5 54 3.9 WNW 20 30 11 16 1018.8 1018.9 0.0
04/05:30pm 11.2 7.0 1.5 51 4.1 WNW 13 19 7 10 1018.5 1018.6 0.0
04/05:00pm 12.1 7.4 1.1 47 4.6 WNW 15 19 8 10 1018.4 1018.5 0.0
04/04:30pm 13.3 8.2 0.7 42 5.3 W 17 20 9 11 1018.2 1018.3 0.0
04/04:00pm 13.8 7.7 0.1 39 5.7 W 22 30 12 16 1018.2 1018.3 0.0
04/03:30pm 14.3 8.1 -0.5 36 6.2 WSW 22 32 12 17 1018.2 1018.3 0.0
04/03:00pm 14.9 7.8 -1.2 33 6.6 WSW 26 33 14 18 1018.1 1018.2 0.0
04/02:30pm 15.0 8.4 -0.3 35 6.5 WSW 24 35 13 19 1018.0 1018.1 0.0
04/02:00pm 15.4 9.8 0.0 35 6.5 WSW 19 26 10 14 1017.8 1017.9 0.0

Latest Capital City Observations: Canberra | Sydney | Melbourne | Brisbane | Adelaide | Perth | Hobart | Darwin

Other formats

Comma delimited format used in spreadsheet applications
http://www.bom.gov.au/fwo/IDN60903/IDN60903.94750.axf

JavaScript Object Notation format (JSON) in row-major order
http://www.bom.gov.au/fwo/IDN60903/IDN60903.94750.json

Data quality

Most of these data are generated automatically and are frequently updated. Quality checks on data are not normally performed. It is possible for incorrect values to appear. Refer to information at About Latest Weather Observations and please check the disclaimer before using these data.